sensor_id;sensor_type;location;lat;lon;timestamp;P1;durP1;ratioP1;P2;durP2;ratioP2
53959;SDS011;39866;48.638;-2.020;2022-09-09T00:04:30;13.43;;;2.47;;
53959;SDS011;39866;48.638;-2.020;2022-09-09T00:07:34;11.90;;;2.40;;
53959;SDS011;39866;48.638;-2.020;2022-09-09T00:13:05;13.32;;;2.42;;
53959;SDS011;39866;48.638;-2.020;2022-09-09T00:16:00;12.02;;;2.38;;
53959;SDS011;39866;48.638;-2.020;2022-09-09T00:21:43;12.55;;;2.55;;
53959;SDS011;39866;48.638;-2.020;2022-09-09T00:27:06;14.52;;;2.75;;
53959;SDS011;39866;48.638;-2.020;2022-09-09T00:32:18;12.90;;;2.80;;
53959;SDS011;39866;48.638;-2.020;2022-09-09T00:35:12;11.90;;;2.33;;
53959;SDS011;39866;48.638;-2.020;2022-09-09T00:37:40;14.73;;;2.50;;
53959;SDS011;39866;48.638;-2.020;2022-09-09T00:40:18;10.10;;;2.28;;
53959;SDS011;39866;48.638;-2.020;2022-09-09T00:42:58;12.40;;;2.47;;
53959;SDS011;39866;48.638;-2.020;2022-09-09T00:48:33;14.38;;;2.63;;
53959;SDS011;39866;48.638;-2.020;2022-09-09T00:51:10;13.93;;;2.75;;
53959;SDS011;39866;48.638;-2.020;2022-09-09T00:53:57;13.02;;;2.90;;
53959;SDS011;39866;48.638;-2.020;2022-09-09T01:04:50;11.90;;;2.30;;
53959;SDS011;39866;48.638;-2.020;2022-09-09T01:07:16;13.23;;;2.28;;
53959;SDS011;39866;48.638;-2.020;2022-09-09T01:09:56;13.75;;;2.63;;
53959;SDS011;39866;48.638;-2.020;2022-09-09T01:12:34;13.32;;;2.38;;
53959;SDS011;39866;48.638;-2.020;2022-09-09T01:20:29;12.45;;;2.80;;
53959;SDS011;39866;48.638;-2.020;2022-09-09T01:28:35;13.15;;;2.40;;
53959;SDS011;39866;48.638;-2.020;2022-09-09T01:31:02;14.35;;;2.67;;
53959;SDS011;39866;48.638;-2.020;2022-09-09T01:33:29;11.55;;;2.45;;
53959;SDS011;39866;48.638;-2.020;2022-09-09T01:36:12;13.27;;;2.50;;
53959;SDS011;39866;48.638;-2.020;2022-09-09T01:38:44;17.70;;;2.40;;
53959;SDS011;39866;48.638;-2.020;2022-09-09T01:41:10;10.35;;;2.38;;
53959;SDS011;39866;48.638;-2.020;2022-09-09T01:43:35;13.32;;;2.50;;
53959;SDS011;39866;48.638;-2.020;2022-09-09T01:46:01;12.68;;;2.30;;
53959;SDS011;39866;48.638;-2.020;2022-09-09T01:48:27;13.68;;;2.25;;
53959;SDS011;39866;48.638;-2.020;2022-09-09T01:50:53;10.85;;;2.83;;
53959;SDS011;39866;48.638;-2.020;2022-09-09T01:53:19;12.30;;;2.22;;
53959;SDS011;39866;48.638;-2.020;2022-09-09T02:02:09;12.15;;;2.35;;
53959;SDS011;39866;48.638;-2.020;2022-09-09T02:04:40;11.30;;;2.25;;
53959;SDS011;39866;48.638;-2.020;2022-09-09T02:07:17;12.38;;;2.35;;
53959;SDS011;39866;48.638;-2.020;2022-09-09T02:09:47;12.68;;;2.38;;
53959;SDS011;39866;48.638;-2.020;2022-09-09T02:12:18;11.75;;;2.30;;
53959;SDS011;39866;48.638;-2.020;2022-09-09T02:14:50;10.98;;;2.45;;
53959;SDS011;39866;48.638;-2.020;2022-09-09T02:17:26;9.48;;;2.33;;
53959;SDS011;39866;48.638;-2.020;2022-09-09T02:20:00;11.05;;;2.25;;
53959;SDS011;39866;48.638;-2.020;2022-09-09T02:22:32;11.80;;;2.45;;
53959;SDS011;39866;48.638;-2.020;2022-09-09T02:24:59;12.85;;;2.10;;
53959;SDS011;39866;48.638;-2.020;2022-09-09T02:27:25;10.57;;;2.30;;
53959;SDS011;39866;48.638;-2.020;2022-09-09T02:29:51;9.65;;;2.45;;
53959;SDS011;39866;48.638;-2.020;2022-09-09T02:32:20;11.43;;;2.17;;
53959;SDS011;39866;48.638;-2.020;2022-09-09T02:34:49;11.65;;;2.30;;
53959;SDS011;39866;48.638;-2.020;2022-09-09T02:37:21;13.63;;;2.38;;
53959;SDS011;39866;48.638;-2.020;2022-09-09T02:39:53;13.60;;;2.47;;
53959;SDS011;39866;48.638;-2.020;2022-09-09T02:42:19;14.60;;;2.50;;
53959;SDS011;39866;48.638;-2.020;2022-09-09T02:44:44;13.68;;;2.70;;
53959;SDS011;39866;48.638;-2.020;2022-09-09T02:52:30;11.05;;;2.20;;
53959;SDS011;39866;48.638;-2.020;2022-09-09T02:55:08;12.63;;;2.78;;
53959;SDS011;39866;48.638;-2.020;2022-09-09T02:57:46;12.68;;;2.58;;
53959;SDS011;39866;48.638;-2.020;2022-09-09T03:00:13;13.32;;;2.40;;
53959;SDS011;39866;48.638;-2.020;2022-09-09T03:02:39;17.25;;;2.90;;
53959;SDS011;39866;48.638;-2.020;2022-09-09T03:05:05;11.77;;;2.40;;
53959;SDS011;39866;48.638;-2.020;2022-09-09T03:07:31;13.73;;;2.28;;
53959;SDS011;39866;48.638;-2.020;2022-09-09T03:09:56;13.43;;;2.42;;
53959;SDS011;39866;48.638;-2.020;2022-09-09T03:12:23;16.58;;;2.83;;
53959;SDS011;39866;48.638;-2.020;2022-09-09T03:14:48;12.48;;;2.58;;
53959;SDS011;39866;48.638;-2.020;2022-09-09T03:17:14;15.65;;;2.70;;
53959;SDS011;39866;48.638;-2.020;2022-09-09T03:19:40;15.45;;;2.78;;
53959;SDS011;39866;48.638;-2.020;2022-09-09T03:22:05;11.32;;;2.38;;
53959;SDS011;39866;48.638;-2.020;2022-09-09T03:24:31;12.88;;;2.63;;
53959;SDS011;39866;48.638;-2.020;2022-09-09T03:26:56;14.02;;;2.70;;
53959;SDS011;39866;48.638;-2.020;2022-09-09T03:29:22;13.45;;;2.72;;
53959;SDS011;39866;48.638;-2.020;2022-09-09T03:31:47;12.23;;;2.50;;
53959;SDS011;39866;48.638;-2.020;2022-09-09T03:34:13;14.32;;;2.67;;
53959;SDS011;39866;48.638;-2.020;2022-09-09T03:36:38;13.68;;;2.75;;
53959;SDS011;39866;48.638;-2.020;2022-09-09T03:39:05;14.88;;;3.00;;
53959;SDS011;39866;48.638;-2.020;2022-09-09T03:41:30;15.95;;;2.70;;
53959;SDS011;39866;48.638;-2.020;2022-09-09T03:43:56;14.30;;;2.60;;
53959;SDS011;39866;48.638;-2.020;2022-09-09T03:46:22;13.77;;;2.83;;
53959;SDS011;39866;48.638;-2.020;2022-09-09T03:48:49;10.95;;;2.33;;
53959;SDS011;39866;48.638;-2.020;2022-09-09T03:51:14;15.40;;;2.45;;
53959;SDS011;39866;48.638;-2.020;2022-09-09T03:53:40;12.88;;;2.53;;
53959;SDS011;39866;48.638;-2.020;2022-09-09T03:56:06;15.25;;;2.85;;
53959;SDS011;39866;48.638;-2.020;2022-09-09T03:58:35;13.60;;;2.63;;
53959;SDS011;39866;48.638;-2.020;2022-09-09T04:01:03;14.25;;;2.60;;
53959;SDS011;39866;48.638;-2.020;2022-09-09T04:03:30;12.75;;;2.40;;
53959;SDS011;39866;48.638;-2.020;2022-09-09T04:05:57;13.88;;;2.53;;
53959;SDS011;39866;48.638;-2.020;2022-09-09T04:08:23;11.68;;;2.47;;
53959;SDS011;39866;48.638;-2.020;2022-09-09T04:10:50;13.05;;;2.75;;
53959;SDS011;39866;48.638;-2.020;2022-09-09T04:13:16;14.18;;;2.20;;
53959;SDS011;39866;48.638;-2.020;2022-09-09T04:15:44;20.83;;;3.38;;
53959;SDS011;39866;48.638;-2.020;2022-09-09T04:18:15;11.65;;;2.20;;
53959;SDS011;39866;48.638;-2.020;2022-09-09T04:20:40;11.40;;;2.60;;
53959;SDS011;39866;48.638;-2.020;2022-09-09T04:23:08;13.10;;;2.55;;
53959;SDS011;39866;48.638;-2.020;2022-09-09T04:25:33;15.43;;;2.70;;
53959;SDS011;39866;48.638;-2.020;2022-09-09T04:27:59;13.95;;;2.80;;
53959;SDS011;39866;48.638;-2.020;2022-09-09T04:30:24;11.43;;;2.40;;
53959;SDS011;39866;48.638;-2.020;2022-09-09T04:32:50;16.40;;;2.58;;
53959;SDS011;39866;48.638;-2.020;2022-09-09T04:35:16;16.42;;;3.00;;
53959;SDS011;39866;48.638;-2.020;2022-09-09T04:37:41;15.75;;;2.60;;
53959;SDS011;39866;48.638;-2.020;2022-09-09T04:40:07;14.93;;;3.15;;
53959;SDS011;39866;48.638;-2.020;2022-09-09T04:42:35;14.23;;;2.50;;
53959;SDS011;39866;48.638;-2.020;2022-09-09T04:45:01;11.65;;;2.35;;
53959;SDS011;39866;48.638;-2.020;2022-09-09T04:47:26;16.65;;;2.42;;
53959;SDS011;39866;48.638;-2.020;2022-09-09T04:49:52;14.57;;;2.88;;
53959;SDS011;39866;48.638;-2.020;2022-09-09T04:52:19;12.68;;;2.78;;
53959;SDS011;39866;48.638;-2.020;2022-09-09T04:54:45;13.80;;;2.85;;
53959;SDS011;39866;48.638;-2.020;2022-09-09T04:57:10;11.88;;;2.63;;
53959;SDS011;39866;48.638;-2.020;2022-09-09T04:59:36;12.77;;;2.72;;
53959;SDS011;39866;48.638;-2.020;2022-09-09T05:02:02;14.35;;;2.90;;
53959;SDS011;39866;48.638;-2.020;2022-09-09T05:04:28;11.80;;;2.80;;
53959;SDS011;39866;48.638;-2.020;2022-09-09T05:06:53;11.93;;;2.58;;
53959;SDS011;39866;48.638;-2.020;2022-09-09T05:09:19;14.57;;;2.80;;
53959;SDS011;39866;48.638;-2.020;2022-09-09T05:11:44;19.42;;;2.90;;
53959;SDS011;39866;48.638;-2.020;2022-09-09T05:14:09;14.85;;;2.83;;
53959;SDS011;39866;48.638;-2.020;2022-09-09T05:16:37;13.55;;;2.75;;
53959;SDS011;39866;48.638;-2.020;2022-09-09T05:19:02;12.75;;;2.70;;
53959;SDS011;39866;48.638;-2.020;2022-09-09T05:21:28;14.32;;;2.95;;
53959;SDS011;39866;48.638;-2.020;2022-09-09T05:23:55;14.32;;;2.70;;
53959;SDS011;39866;48.638;-2.020;2022-09-09T05:26:21;13.20;;;3.20;;
53959;SDS011;39866;48.638;-2.020;2022-09-09T05:28:47;13.80;;;2.25;;
53959;SDS011;39866;48.638;-2.020;2022-09-09T05:31:13;11.93;;;2.67;;
53959;SDS011;39866;48.638;-2.020;2022-09-09T05:33:41;13.15;;;2.90;;
53959;SDS011;39866;48.638;-2.020;2022-09-09T05:36:09;16.00;;;3.10;;
53959;SDS011;39866;48.638;-2.020;2022-09-09T05:38:38;11.50;;;2.45;;
53959;SDS011;39866;48.638;-2.020;2022-09-09T05:41:04;16.02;;;2.65;;
53959;SDS011;39866;48.638;-2.020;2022-09-09T05:43:30;12.57;;;2.67;;
53959;SDS011;39866;48.638;-2.020;2022-09-09T05:46:07;13.35;;;2.75;;
53959;SDS011;39866;48.638;-2.020;2022-09-09T05:48:35;12.20;;;2.45;;
53959;SDS011;39866;48.638;-2.020;2022-09-09T05:51:03;16.20;;;3.00;;
53959;SDS011;39866;48.638;-2.020;2022-09-09T05:53:30;15.07;;;2.80;;
53959;SDS011;39866;48.638;-2.020;2022-09-09T05:56:13;16.52;;;2.72;;
53959;SDS011;39866;48.638;-2.020;2022-09-09T05:58:40;12.48;;;2.65;;
53959;SDS011;39866;48.638;-2.020;2022-09-09T06:01:13;17.50;;;2.92;;
53959;SDS011;39866;48.638;-2.020;2022-09-09T06:03:41;12.27;;;2.58;;
53959;SDS011;39866;48.638;-2.020;2022-09-09T06:06:09;13.00;;;2.90;;
53959;SDS011;39866;48.638;-2.020;2022-09-09T06:08:37;19.17;;;3.17;;
53959;SDS011;39866;48.638;-2.020;2022-09-09T06:11:05;17.02;;;2.83;;
53959;SDS011;39866;48.638;-2.020;2022-09-09T06:13:38;12.23;;;2.38;;
53959;SDS011;39866;48.638;-2.020;2022-09-09T06:16:14;11.57;;;2.53;;
53959;SDS011;39866;48.638;-2.020;2022-09-09T06:18:41;13.45;;;2.50;;
53959;SDS011;39866;48.638;-2.020;2022-09-09T06:21:09;20.85;;;3.08;;
53959;SDS011;39866;48.638;-2.020;2022-09-09T06:23:39;12.38;;;2.78;;
53959;SDS011;39866;48.638;-2.020;2022-09-09T06:26:12;14.07;;;2.83;;
53959;SDS011;39866;48.638;-2.020;2022-09-09T06:28:43;12.32;;;2.58;;
53959;SDS011;39866;48.638;-2.020;2022-09-09T06:31:10;15.57;;;3.13;;
53959;SDS011;39866;48.638;-2.020;2022-09-09T06:33:37;15.40;;;2.50;;
53959;SDS011;39866;48.638;-2.020;2022-09-09T06:36:06;15.23;;;2.75;;
53959;SDS011;39866;48.638;-2.020;2022-09-09T06:41:05;13.53;;;2.80;;
53959;SDS011;39866;48.638;-2.020;2022-09-09T06:43:31;13.55;;;2.58;;
53959;SDS011;39866;48.638;-2.020;2022-09-09T06:45:57;11.88;;;2.53;;
53959;SDS011;39866;48.638;-2.020;2022-09-09T06:48:27;13.73;;;2.97;;
53959;SDS011;39866;48.638;-2.020;2022-09-09T06:53:32;17.48;;;2.90;;
53959;SDS011;39866;48.638;-2.020;2022-09-09T06:56:00;11.48;;;2.25;;
53959;SDS011;39866;48.638;-2.020;2022-09-09T06:58:27;12.63;;;2.65;;
53959;SDS011;39866;48.638;-2.020;2022-09-09T07:00:52;13.27;;;2.80;;
53959;SDS011;39866;48.638;-2.020;2022-09-09T07:03:18;9.38;;;3.00;;
53959;SDS011;39866;48.638;-2.020;2022-09-09T07:05:43;11.40;;;2.65;;
53959;SDS011;39866;48.638;-2.020;2022-09-09T07:08:18;13.07;;;2.95;;
53959;SDS011;39866;48.638;-2.020;2022-09-09T07:10:43;13.27;;;2.95;;
53959;SDS011;39866;48.638;-2.020;2022-09-09T07:13:09;14.68;;;3.22;;
53959;SDS011;39866;48.638;-2.020;2022-09-09T07:15:34;13.80;;;2.72;;
53959;SDS011;39866;48.638;-2.020;2022-09-09T07:18:03;15.95;;;3.25;;
53959;SDS011;39866;48.638;-2.020;2022-09-09T07:20:28;15.13;;;2.72;;
53959;SDS011;39866;48.638;-2.020;2022-09-09T07:22:54;12.23;;;2.55;;
53959;SDS011;39866;48.638;-2.020;2022-09-09T07:25:21;16.50;;;2.92;;
53959;SDS011;39866;48.638;-2.020;2022-09-09T07:27:46;11.20;;;2.53;;
53959;SDS011;39866;48.638;-2.020;2022-09-09T07:30:12;15.65;;;2.90;;
53959;SDS011;39866;48.638;-2.020;2022-09-09T07:32:37;17.15;;;3.05;;
53959;SDS011;39866;48.638;-2.020;2022-09-09T07:35:03;12.35;;;2.88;;
53959;SDS011;39866;48.638;-2.020;2022-09-09T07:37:28;11.15;;;2.42;;
53959;SDS011;39866;48.638;-2.020;2022-09-09T07:39:54;12.93;;;2.45;;
53959;SDS011;39866;48.638;-2.020;2022-09-09T07:42:19;11.20;;;2.53;;
53959;SDS011;39866;48.638;-2.020;2022-09-09T07:44:44;13.45;;;2.45;;
53959;SDS011;39866;48.638;-2.020;2022-09-09T07:47:10;14.40;;;3.33;;
53959;SDS011;39866;48.638;-2.020;2022-09-09T07:49:35;15.57;;;2.75;;
53959;SDS011;39866;48.638;-2.020;2022-09-09T07:52:01;10.85;;;2.42;;
53959;SDS011;39866;48.638;-2.020;2022-09-09T07:54:27;10.65;;;2.40;;
53959;SDS011;39866;48.638;-2.020;2022-09-09T07:56:52;10.32;;;2.30;;
53959;SDS011;39866;48.638;-2.020;2022-09-09T07:59:18;11.65;;;2.65;;
53959;SDS011;39866;48.638;-2.020;2022-09-09T08:01:45;11.68;;;2.80;;
53959;SDS011;39866;48.638;-2.020;2022-09-09T08:04:14;13.60;;;2.35;;
53959;SDS011;39866;48.638;-2.020;2022-09-09T08:06:45;10.95;;;2.47;;
53959;SDS011;39866;48.638;-2.020;2022-09-09T08:09:15;10.88;;;2.28;;
53959;SDS011;39866;48.638;-2.020;2022-09-09T08:11:41;13.23;;;2.67;;
53959;SDS011;39866;48.638;-2.020;2022-09-09T08:14:08;13.93;;;2.72;;
53959;SDS011;39866;48.638;-2.020;2022-09-09T08:16:37;13.18;;;2.83;;
53959;SDS011;39866;48.638;-2.020;2022-09-09T08:19:04;9.48;;;2.33;;
53959;SDS011;39866;48.638;-2.020;2022-09-09T08:21:32;12.68;;;2.55;;
53959;SDS011;39866;48.638;-2.020;2022-09-09T08:24:00;14.45;;;2.70;;
53959;SDS011;39866;48.638;-2.020;2022-09-09T08:26:30;12.88;;;2.60;;
53959;SDS011;39866;48.638;-2.020;2022-09-09T08:29:00;14.40;;;2.60;;
53959;SDS011;39866;48.638;-2.020;2022-09-09T08:31:28;14.60;;;2.40;;
53959;SDS011;39866;48.638;-2.020;2022-09-09T08:33:56;10.20;;;2.70;;
53959;SDS011;39866;48.638;-2.020;2022-09-09T08:36:24;11.00;;;2.50;;
53959;SDS011;39866;48.638;-2.020;2022-09-09T08:38:52;12.45;;;2.53;;
53959;SDS011;39866;48.638;-2.020;2022-09-09T08:46:38;16.02;;;2.70;;
53959;SDS011;39866;48.638;-2.020;2022-09-09T08:51:52;12.43;;;2.42;;
53959;SDS011;39866;48.638;-2.020;2022-09-09T08:54:21;11.93;;;2.33;;
53959;SDS011;39866;48.638;-2.020;2022-09-09T08:56:47;12.45;;;2.78;;
53959;SDS011;39866;48.638;-2.020;2022-09-09T08:59:15;13.95;;;2.85;;
53959;SDS011;39866;48.638;-2.020;2022-09-09T09:04:45;12.82;;;2.60;;
53959;SDS011;39866;48.638;-2.020;2022-09-09T09:12:55;12.43;;;2.67;;
53959;SDS011;39866;48.638;-2.020;2022-09-09T09:15:23;13.45;;;2.22;;
53959;SDS011;39866;48.638;-2.020;2022-09-09T09:17:50;11.63;;;2.70;;
53959;SDS011;39866;48.638;-2.020;2022-09-09T09:20:15;10.57;;;2.22;;
53959;SDS011;39866;48.638;-2.020;2022-09-09T09:25:48;10.32;;;2.15;;
53959;SDS011;39866;48.638;-2.020;2022-09-09T09:28:18;12.52;;;2.58;;
53959;SDS011;39866;48.638;-2.020;2022-09-09T09:33:19;14.35;;;2.88;;
53959;SDS011;39866;48.638;-2.020;2022-09-09T09:35:45;15.77;;;2.92;;
53959;SDS011;39866;48.638;-2.020;2022-09-09T09:38:51;17.48;;;2.75;;
53959;SDS011;39866;48.638;-2.020;2022-09-09T09:41:02;14.23;;;2.60;;
53959;SDS011;39866;48.638;-2.020;2022-09-09T09:43:29;13.10;;;2.63;;
53959;SDS011;39866;48.638;-2.020;2022-09-09T09:45:56;13.98;;;2.55;;
53959;SDS011;39866;48.638;-2.020;2022-09-09T09:48:25;14.40;;;2.80;;
53959;SDS011;39866;48.638;-2.020;2022-09-09T09:50:52;12.07;;;2.70;;
53959;SDS011;39866;48.638;-2.020;2022-09-09T09:53:24;11.50;;;2.47;;
53959;SDS011;39866;48.638;-2.020;2022-09-09T09:56:13;12.13;;;2.42;;
53959;SDS011;39866;48.638;-2.020;2022-09-09T10:01:22;14.18;;;2.60;;
53959;SDS011;39866;48.638;-2.020;2022-09-09T10:04:12;17.13;;;2.97;;
53959;SDS011;39866;48.638;-2.020;2022-09-09T10:06:43;15.65;;;2.63;;
53959;SDS011;39866;48.638;-2.020;2022-09-09T10:09:20;17.65;;;3.20;;
53959;SDS011;39866;48.638;-2.020;2022-09-09T10:14:49;21.27;;;3.35;;
53959;SDS011;39866;48.638;-2.020;2022-09-09T10:23:19;16.52;;;3.20;;
53959;SDS011;39866;48.638;-2.020;2022-09-09T10:28:38;11.10;;;2.92;;
53959;SDS011;39866;48.638;-2.020;2022-09-09T10:31:24;17.08;;;3.08;;
53959;SDS011;39866;48.638;-2.020;2022-09-09T10:34:05;16.45;;;3.35;;
53959;SDS011;39866;48.638;-2.020;2022-09-09T10:36:46;17.00;;;3.10;;
53959;SDS011;39866;48.638;-2.020;2022-09-09T10:47:32;22.63;;;3.58;;
53959;SDS011;39866;48.638;-2.020;2022-09-09T10:50:29;15.57;;;2.67;;
53959;SDS011;39866;48.638;-2.020;2022-09-09T10:56:07;14.55;;;2.88;;
53959;SDS011;39866;48.638;-2.020;2022-09-09T10:58:43;20.38;;;3.10;;
53959;SDS011;39866;48.638;-2.020;2022-09-09T11:01:15;18.33;;;3.35;;
53959;SDS011;39866;48.638;-2.020;2022-09-09T11:03:45;17.30;;;3.08;;
53959;SDS011;39866;48.638;-2.020;2022-09-09T11:08:46;16.15;;;3.15;;
53959;SDS011;39866;48.638;-2.020;2022-09-09T11:11:17;15.00;;;3.08;;
53959;SDS011;39866;48.638;-2.020;2022-09-09T11:13:52;17.55;;;3.08;;
53959;SDS011;39866;48.638;-2.020;2022-09-09T11:19:30;18.48;;;3.40;;
53959;SDS011;39866;48.638;-2.020;2022-09-09T11:27:29;17.75;;;3.53;;
53959;SDS011;39866;48.638;-2.020;2022-09-09T11:32:53;14.90;;;2.72;;
53959;SDS011;39866;48.638;-2.020;2022-09-09T11:35:43;22.50;;;3.50;;
53959;SDS011;39866;48.638;-2.020;2022-09-09T11:38:18;18.42;;;4.15;;
53959;SDS011;39866;48.638;-2.020;2022-09-09T11:40:44;14.38;;;2.85;;
53959;SDS011;39866;48.638;-2.020;2022-09-09T11:43:12;23.50;;;4.45;;
53959;SDS011;39866;48.638;-2.020;2022-09-09T11:45:40;19.35;;;3.05;;
53959;SDS011;39866;48.638;-2.020;2022-09-09T11:48:22;17.88;;;2.83;;
53959;SDS011;39866;48.638;-2.020;2022-09-09T11:50:57;15.98;;;3.03;;
53959;SDS011;39866;48.638;-2.020;2022-09-09T11:56:26;18.20;;;3.25;;
53959;SDS011;39866;48.638;-2.020;2022-09-09T12:02:00;19.20;;;3.38;;
53959;SDS011;39866;48.638;-2.020;2022-09-09T12:07:23;20.92;;;3.25;;
53959;SDS011;39866;48.638;-2.020;2022-09-09T12:09:51;15.27;;;3.10;;
53959;SDS011;39866;48.638;-2.020;2022-09-09T12:12:21;18.00;;;3.20;;
53959;SDS011;39866;48.638;-2.020;2022-09-09T12:17:36;14.70;;;3.10;;
53959;SDS011;39866;48.638;-2.020;2022-09-09T12:25:50;21.60;;;3.80;;
53959;SDS011;39866;48.638;-2.020;2022-09-09T12:34:49;19.60;;;3.78;;
53959;SDS011;39866;48.638;-2.020;2022-09-09T12:36:58;21.83;;;3.67;;
53959;SDS011;39866;48.638;-2.020;2022-09-09T12:39:37;20.92;;;3.47;;
53959;SDS011;39866;48.638;-2.020;2022-09-09T12:42:16;20.08;;;3.20;;
53959;SDS011;39866;48.638;-2.020;2022-09-09T12:44:56;17.80;;;3.58;;
53959;SDS011;39866;48.638;-2.020;2022-09-09T12:47:27;23.33;;;3.35;;
53959;SDS011;39866;48.638;-2.020;2022-09-09T12:50:02;15.35;;;3.60;;
53959;SDS011;39866;48.638;-2.020;2022-09-09T12:52:29;20.98;;;3.90;;
53959;SDS011;39866;48.638;-2.020;2022-09-09T12:54:59;21.05;;;3.70;;
53959;SDS011;39866;48.638;-2.020;2022-09-09T12:57:29;21.77;;;3.70;;
53959;SDS011;39866;48.638;-2.020;2022-09-09T13:00:06;20.55;;;3.38;;
53959;SDS011;39866;48.638;-2.020;2022-09-09T13:02:45;20.13;;;3.33;;
53959;SDS011;39866;48.638;-2.020;2022-09-09T13:05:17;21.70;;;3.63;;
53959;SDS011;39866;48.638;-2.020;2022-09-09T13:07:47;15.82;;;3.10;;
53959;SDS011;39866;48.638;-2.020;2022-09-09T13:10:13;16.13;;;3.10;;
53959;SDS011;39866;48.638;-2.020;2022-09-09T13:12:42;15.75;;;3.33;;
53959;SDS011;39866;48.638;-2.020;2022-09-09T13:15:14;19.98;;;3.65;;
53959;SDS011;39866;48.638;-2.020;2022-09-09T13:17:49;24.45;;;4.05;;
53959;SDS011;39866;48.638;-2.020;2022-09-09T13:20:18;17.83;;;3.63;;
53959;SDS011;39866;48.638;-2.020;2022-09-09T13:22:47;15.38;;;2.88;;
53959;SDS011;39866;48.638;-2.020;2022-09-09T13:27:56;18.75;;;3.22;;
53959;SDS011;39866;48.638;-2.020;2022-09-09T13:30:28;20.20;;;3.47;;
53959;SDS011;39866;48.638;-2.020;2022-09-09T13:33:03;21.80;;;3.33;;
53959;SDS011;39866;48.638;-2.020;2022-09-09T13:38:56;19.63;;;3.17;;
53959;SDS011;39866;48.638;-2.020;2022-09-09T13:41:28;21.92;;;3.70;;
53959;SDS011;39866;48.638;-2.020;2022-09-09T13:43:56;19.40;;;4.05;;
53959;SDS011;39866;48.638;-2.020;2022-09-09T13:49:02;16.95;;;3.33;;
53959;SDS011;39866;48.638;-2.020;2022-09-09T13:51:40;21.23;;;3.63;;
53959;SDS011;39866;48.638;-2.020;2022-09-09T13:54:12;17.85;;;3.55;;
53959;SDS011;39866;48.638;-2.020;2022-09-09T13:56:39;18.02;;;3.75;;
53959;SDS011;39866;48.638;-2.020;2022-09-09T13:59:05;20.27;;;3.42;;
53959;SDS011;39866;48.638;-2.020;2022-09-09T14:01:35;21.55;;;3.83;;
53959;SDS011;39866;48.638;-2.020;2022-09-09T14:04:02;22.05;;;3.95;;
53959;SDS011;39866;48.638;-2.020;2022-09-09T14:06:28;15.73;;;3.10;;
53959;SDS011;39866;48.638;-2.020;2022-09-09T14:08:54;19.83;;;3.33;;
53959;SDS011;39866;48.638;-2.020;2022-09-09T14:11:20;18.30;;;3.28;;
53959;SDS011;39866;48.638;-2.020;2022-09-09T14:13:46;20.60;;;3.42;;
53959;SDS011;39866;48.638;-2.020;2022-09-09T14:16:12;14.95;;;2.97;;
53959;SDS011;39866;48.638;-2.020;2022-09-09T14:18:37;21.30;;;3.25;;
53959;SDS011;39866;48.638;-2.020;2022-09-09T14:21:03;18.52;;;3.78;;
53959;SDS011;39866;48.638;-2.020;2022-09-09T14:23:29;18.52;;;3.55;;
53959;SDS011;39866;48.638;-2.020;2022-09-09T14:25:55;17.23;;;3.63;;
53959;SDS011;39866;48.638;-2.020;2022-09-09T14:28:20;16.02;;;3.40;;
53959;SDS011;39866;48.638;-2.020;2022-09-09T14:30:46;17.00;;;3.22;;
53959;SDS011;39866;48.638;-2.020;2022-09-09T14:33:12;16.85;;;3.20;;
53959;SDS011;39866;48.638;-2.020;2022-09-09T14:35:40;17.38;;;3.30;;
53959;SDS011;39866;48.638;-2.020;2022-09-09T14:38:06;20.77;;;3.28;;
53959;SDS011;39866;48.638;-2.020;2022-09-09T14:40:33;13.15;;;2.92;;
53959;SDS011;39866;48.638;-2.020;2022-09-09T14:42:59;19.75;;;3.22;;
53959;SDS011;39866;48.638;-2.020;2022-09-09T14:45:25;16.83;;;3.25;;
53959;SDS011;39866;48.638;-2.020;2022-09-09T14:47:51;19.33;;;3.22;;
53959;SDS011;39866;48.638;-2.020;2022-09-09T14:50:18;18.77;;;3.38;;
53959;SDS011;39866;48.638;-2.020;2022-09-09T14:52:44;18.35;;;3.42;;
53959;SDS011;39866;48.638;-2.020;2022-09-09T14:55:09;17.45;;;3.13;;
53959;SDS011;39866;48.638;-2.020;2022-09-09T14:57:36;17.23;;;3.15;;
53959;SDS011;39866;48.638;-2.020;2022-09-09T15:00:05;16.63;;;3.15;;
53959;SDS011;39866;48.638;-2.020;2022-09-09T15:02:31;16.05;;;3.08;;
53959;SDS011;39866;48.638;-2.020;2022-09-09T15:04:56;14.35;;;2.83;;
53959;SDS011;39866;48.638;-2.020;2022-09-09T15:07:23;17.05;;;3.20;;
53959;SDS011;39866;48.638;-2.020;2022-09-09T15:09:48;18.85;;;3.17;;
53959;SDS011;39866;48.638;-2.020;2022-09-09T15:12:14;14.18;;;2.97;;
53959;SDS011;39866;48.638;-2.020;2022-09-09T15:14:40;21.77;;;3.55;;
53959;SDS011;39866;48.638;-2.020;2022-09-09T15:17:05;18.20;;;3.58;;
53959;SDS011;39866;48.638;-2.020;2022-09-09T15:19:30;19.20;;;3.55;;
53959;SDS011;39866;48.638;-2.020;2022-09-09T15:21:57;18.90;;;3.33;;
53959;SDS011;39866;48.638;-2.020;2022-09-09T15:24:25;18.05;;;3.60;;
53959;SDS011;39866;48.638;-2.020;2022-09-09T15:26:51;18.73;;;3.20;;
53959;SDS011;39866;48.638;-2.020;2022-09-09T15:29:16;19.10;;;3.72;;
53959;SDS011;39866;48.638;-2.020;2022-09-09T15:31:42;20.17;;;3.55;;
53959;SDS011;39866;48.638;-2.020;2022-09-09T15:34:07;22.00;;;3.95;;
53959;SDS011;39866;48.638;-2.020;2022-09-09T15:36:34;15.68;;;2.92;;
53959;SDS011;39866;48.638;-2.020;2022-09-09T15:39:00;15.05;;;2.83;;
53959;SDS011;39866;48.638;-2.020;2022-09-09T15:41:26;16.63;;;3.17;;
53959;SDS011;39866;48.638;-2.020;2022-09-09T15:43:53;17.73;;;3.63;;
53959;SDS011;39866;48.638;-2.020;2022-09-09T15:49:07;18.65;;;2.90;;
53959;SDS011;39866;48.638;-2.020;2022-09-09T15:51:34;24.83;;;3.42;;
53959;SDS011;39866;48.638;-2.020;2022-09-09T15:53:59;17.48;;;3.53;;
53959;SDS011;39866;48.638;-2.020;2022-09-09T15:56:25;19.77;;;3.70;;
53959;SDS011;39866;48.638;-2.020;2022-09-09T15:58:52;17.55;;;3.30;;
53959;SDS011;39866;48.638;-2.020;2022-09-09T16:01:18;18.98;;;3.67;;
53959;SDS011;39866;48.638;-2.020;2022-09-09T16:03:44;16.80;;;3.35;;
53959;SDS011;39866;48.638;-2.020;2022-09-09T16:06:15;24.55;;;3.65;;
53959;SDS011;39866;48.638;-2.020;2022-09-09T16:08:43;16.55;;;3.03;;
53959;SDS011;39866;48.638;-2.020;2022-09-09T16:11:14;20.50;;;3.33;;
53959;SDS011;39866;48.638;-2.020;2022-09-09T16:13:41;13.80;;;3.20;;
53959;SDS011;39866;48.638;-2.020;2022-09-09T16:16:12;18.40;;;3.22;;
53959;SDS011;39866;48.638;-2.020;2022-09-09T16:18:42;18.77;;;3.90;;
53959;SDS011;39866;48.638;-2.020;2022-09-09T16:21:32;21.58;;;3.42;;
53959;SDS011;39866;48.638;-2.020;2022-09-09T16:23:58;19.20;;;3.67;;
53959;SDS011;39866;48.638;-2.020;2022-09-09T16:26:25;17.65;;;3.03;;
53959;SDS011;39866;48.638;-2.020;2022-09-09T16:28:52;17.33;;;3.40;;
53959;SDS011;39866;48.638;-2.020;2022-09-09T16:31:20;15.95;;;2.83;;
53959;SDS011;39866;48.638;-2.020;2022-09-09T16:33:46;17.80;;;3.30;;
53959;SDS011;39866;48.638;-2.020;2022-09-09T16:36:14;18.23;;;3.50;;
53959;SDS011;39866;48.638;-2.020;2022-09-09T16:38:41;17.48;;;3.40;;
53959;SDS011;39866;48.638;-2.020;2022-09-09T16:41:08;22.13;;;3.83;;
53959;SDS011;39866;48.638;-2.020;2022-09-09T16:43:35;18.42;;;3.38;;
53959;SDS011;39866;48.638;-2.020;2022-09-09T16:46:01;20.02;;;3.97;;
53959;SDS011;39866;48.638;-2.020;2022-09-09T16:48:47;20.13;;;3.63;;
53959;SDS011;39866;48.638;-2.020;2022-09-09T16:53:41;16.15;;;3.30;;
53959;SDS011;39866;48.638;-2.020;2022-09-09T16:56:09;21.50;;;3.97;;
53959;SDS011;39866;48.638;-2.020;2022-09-09T16:58:36;15.82;;;3.20;;
53959;SDS011;39866;48.638;-2.020;2022-09-09T17:01:02;19.48;;;3.60;;
53959;SDS011;39866;48.638;-2.020;2022-09-09T17:03:28;23.63;;;4.13;;
53959;SDS011;39866;48.638;-2.020;2022-09-09T17:05:54;20.67;;;3.30;;